Time;durP1;ratioP1;P1;durP2;ratioP2;P2;SDS_P1;SDS_P2;PMS_P1;PMS_P2;Temp;Humidity;BMP_temperature;BMP_pressure;BME280_temperature;BME280_humidity;BME280_pressure;Samples;Min_cycle;Max_cycle;Signal;HPM_P1;HPM_P2
2020/12/23 00:02:24;;;;;;;;;;;;;;;19.94;41.39;101405.13;5017548;28;942;-52
2020/12/23 00:04:49;;;;;;;;;;;;;;;19.94;41.49;101391.13;5016754;28;1032;-52
2020/12/23 00:07:15;;;;;;;;;;;;;;;19.94;41.38;101393.13;5017220;28;1255;-52
2020/12/23 00:09:44;;;;;;;;;;;;;;;19.94;41.50;101398.75;5017108;28;854;-52
2020/12/23 00:12:10;;;;;;;;;;;;;;;19.93;41.36;101392.31;5017358;28;981;-51
2020/12/23 00:14:35;;;;;;;;;;;;;;;19.94;41.35;101390.31;5016864;28;787;-51
2020/12/23 00:17:01;;;;;;;;;;;;;;;19.94;41.48;101385.53;5016619;28;1372;-51
2020/12/23 00:19:26;;;;;;;;;;;;;;;19.93;41.31;101375.50;5016832;28;1961;-52
2020/12/23 00:21:51;;;;;;;;;;;;;;;19.94;41.39;101387.53;5017136;28;893;-52
2020/12/23 00:24:17;;;;;;;;;;;;;;;19.93;41.47;101378.31;5017131;28;809;-52
2020/12/23 00:26:45;;;;;;;;;;;;;;;19.94;41.38;101376.31;5016333;28;1352;-52
2020/12/23 00:29:11;;;;;;;;;;;;;;;19.93;41.49;101383.91;5016528;28;927;-51
2020/12/23 00:31:36;;;;;;;;;;;;;;;19.92;41.55;101380.31;5016519;28;822;-52
2020/12/23 00:34:02;;;;;;;;;;;;;;;19.92;41.51;101377.50;5016448;28;936;-51
2020/12/23 00:36:27;;;;;;;;;;;;;;;19.94;41.43;101381.91;5016647;28;1243;-51
2020/12/23 00:38:53;;;;;;;;;;;;;;;19.92;41.38;101366.28;5016578;28;1899;-51
2020/12/23 00:41:18;;;;;;;;;;;;;;;19.93;41.48;101367.09;5016281;28;893;-51
2020/12/23 00:43:43;;;;;;;;;;;;;;;19.93;41.43;101367.09;5016890;28;998;-51
2020/12/23 00:46:11;;;;;;;;;;;;;;;19.92;41.47;101359.91;5016219;28;1290;-52
2020/12/23 00:48:37;;;;;;;;;;;;;;;19.93;41.48;101364.28;5017134;28;903;-51
2020/12/23 00:51:15;;;;;;;;;;;;;;;19.92;41.32;101360.69;5016568;28;968;-53
2020/12/23 00:53:42;;;;;;;;;;;;;;;19.92;41.54;101360.69;5016410;28;839;-51
2020/12/23 00:56:08;;;;;;;;;;;;;;;19.92;41.33;101363.50;5016020;28;1274;-53
2020/12/23 00:58:33;;;;;;;;;;;;;;;19.93;41.72;101372.69;5015817;28;1910;-52
2020/12/23 01:00:59;;;;;;;;;;;;;;;19.93;41.36;101372.69;5016634;28;991;-52
2020/12/23 01:03:25;;;;;;;;;;;;;;;19.92;41.41;101366.28;5016300;28;988;-51
2020/12/23 01:05:51;;;;;;;;;;;;;;;19.93;41.39;101378.31;5015549;28;1332;-52
2020/12/23 01:08:16;;;;;;;;;;;;;;;19.92;41.38;101385.91;5015964;28;980;-52
2020/12/23 01:10:46;;;;;;;;;;;;;;;19.92;41.41;101380.31;5016307;28;1067;-52
2020/12/23 01:13:12;;;;;;;;;;;;;;;19.93;41.27;101383.91;5016197;28;849;-52
2020/12/23 01:15:38;;;;;;;;;;;;;;;19.92;41.32;101388.72;5015882;28;802;-51
2020/12/23 01:18:03;;;;;;;;;;;;;;;19.92;41.47;101391.50;5015449;28;1957;-52
2020/12/23 01:20:29;;;;;;;;;;;;;;;19.93;41.46;101381.09;5016224;28;1051;-52
2020/12/23 01:22:54;;;;;;;;;;;;;;;19.92;41.55;101388.72;5016043;28;1125;-51
2020/12/23 01:25:19;;;;;;;;;;;;;;;19.92;41.44;101376.72;5015650;28;1047;-51
2020/12/23 01:27:45;;;;;;;;;;;;;;;19.92;41.30;101376.72;5016149;28;1365;-53
2020/12/23 01:30:10;;;;;;;;;;;;;;;19.91;41.43;101381.50;5015410;28;1012;-51
2020/12/23 01:32:36;;;;;;;;;;;;;;;19.91;41.48;101384.28;5015615;28;856;-51
2020/12/23 01:35:01;;;;;;;;;;;;;;;19.92;41.40;101380.31;5016103;28;873;-51
2020/12/23 01:37:26;;;;;;;;;;;;;;;19.92;41.38;101374.69;5015626;28;1259;-52
2020/12/23 01:39:51;;;;;;;;;;;;;;;19.92;41.34;101373.91;5015238;28;1886;-51
2020/12/23 01:42:17;;;;;;;;;;;;;;;19.91;41.42;101381.50;5015355;28;905;-50
2020/12/23 01:44:42;;;;;;;;;;;;;;;19.91;41.55;101383.50;5015951;28;895;-51
2020/12/23 01:47:15;;;;;;;;;;;;;;;19.92;41.30;101390.72;5015568;28;1266;-51
2020/12/23 01:49:41;;;;;;;;;;;;;;;19.91;41.32;101401.09;5014712;28;908;-51
2020/12/23 01:52:06;;;;;;;;;;;;;;;19.91;41.33;101409.50;5015561;28;989;-51
2020/12/23 01:54:32;;;;;;;;;;;;;;;19.91;41.36;101411.53;5014985;28;1052;-52
2020/12/23 01:56:58;;;;;;;;;;;;;;;19.91;41.36;101409.50;5014893;28;1262;-52
2020/12/23 01:59:24;;;;;;;;;;;;;;;19.91;41.33;101415.13;5014992;28;1977;-52
2020/12/23 02:02:07;;;;;;;;;;;;;;;19.92;41.33;101418.75;5014998;28;923;-51
2020/12/23 02:04:32;;;;;;;;;;;;;;;19.91;41.51;101406.72;5015017;28;834;-52
2020/12/23 02:06:58;;;;;;;;;;;;;;;19.91;41.35;101411.53;5014956;28;1365;-53
2020/12/23 02:09:26;;;;;;;;;;;;;;;19.90;41.46;101407.94;5015633;28;936;-54
2020/12/23 02:11:51;;;;;;;;;;;;;;;19.91;41.37;101406.72;5015141;28;853;-52
2020/12/23 02:14:17;;;;;;;;;;;;;;;19.91;41.43;101403.13;5015261;28;905;-52
2020/12/23 02:16:42;;;;;;;;;;;;;;;19.91;41.44;101400.31;5014670;28;1255;-51
2020/12/23 02:19:08;;;;;;;;;;;;;;;19.90;41.43;101402.31;5015297;28;1906;-51
2020/12/23 02:21:34;;;;;;;;;;;;;;;19.90;41.26;101396.72;5014867;28;818;-51
2020/12/23 02:23:59;;;;;;;;;;;;;;;19.91;41.35;101387.09;5015552;28;1015;-51
2020/12/23 02:26:24;;;;;;;;;;;;;;;19.91;41.44;101397.50;5015134;28;1275;-52
2020/12/23 02:28:50;;;;;;;;;;;;;;;19.91;41.44;101391.91;5014971;28;748;-52
2020/12/23 02:31:15;;;;;;;;;;;;;;;19.90;41.30;101384.72;5015039;28;993;-52
2020/12/23 02:33:40;;;;;;;;;;;;;;;19.91;41.32;101391.91;5014796;28;865;-51
2020/12/23 02:36:05;;;;;;;;;;;;;;;19.90;41.37;101384.72;5014493;28;1440;-51
2020/12/23 02:38:31;;;;;;;;;;;;;;;19.90;41.36;101393.13;5014643;28;1898;-51
2020/12/23 02:40:56;;;;;;;;;;;;;;;19.90;41.29;101390.31;5014651;28;940;-51
2020/12/23 02:43:21;;;;;;;;;;;;;;;19.90;41.45;101393.91;5014791;28;992;-54
2020/12/23 02:45:47;;;;;;;;;;;;;;;19.90;41.48;101388.31;5014294;28;1270;-51
2020/12/23 02:48:12;;;;;;;;;;;;;;;19.89;41.44;101383.09;5015325;28;832;-51
2020/12/23 02:50:37;;;;;;;;;;;;;;;19.89;41.42;101377.50;5014552;28;798;-52
2020/12/23 02:53:02;;;;;;;;;;;;;;;19.90;41.33;101370.69;5014544;28;984;-51
2020/12/23 02:55:28;;;;;;;;;;;;;;;19.89;41.42;101369.09;5014496;28;999;-52
2020/12/23 02:57:53;;;;;;;;;;;;;;;19.89;41.41;101364.28;5015032;28;1910;-52
2020/12/23 03:00:18;;;;;;;;;;;;;;;19.90;41.43;101362.28;5016026;28;957;-52
2020/12/23 03:02:44;;;;;;;;;;;;;;;19.89;41.38;101363.47;5018429;28;950;-51
2020/12/23 03:05:09;;;;;;;;;;;;;;;19.89;41.31;101346.66;5018300;28;917;-51
2020/12/23 03:07:34;;;;;;;;;;;;;;;19.89;41.36;101353.06;5018268;28;1340;-52
2020/12/23 03:10:01;;;;;;;;;;;;;;;19.89;41.34;101350.28;5012649;28;3876;-52
2020/12/23 03:12:27;;;;;;;;;;;;;;;19.89;41.44;101352.28;5017354;28;859;-52
2020/12/23 03:14:52;;;;;;;;;;;;;;;19.89;41.22;101344.66;5017835;28;912;-52
2020/12/23 03:17:17;;;;;;;;;;;;;;;19.88;41.42;101343.06;5018215;28;1354;-54
2020/12/23 03:19:42;;;;;;;;;;;;;;;19.88;41.42;101340.28;5018198;28;1907;-51
2020/12/23 03:22:08;;;;;;;;;;;;;;;19.89;41.45;101341.06;5018569;28;974;-51
2020/12/23 03:24:33;;;;;;;;;;;;;;;19.88;41.39;101340.28;5017560;28;1131;-54
2020/12/23 03:26:58;;;;;;;;;;;;;;;19.88;41.32;101345.88;5017653;28;1247;-52
2020/12/23 03:29:24;;;;;;;;;;;;;;;19.89;41.39;101338.25;5018050;28;877;-52
2020/12/23 03:31:49;;;;;;;;;;;;;;;19.89;41.30;101341.06;5017824;28;801;-51
2020/12/23 03:34:14;;;;;;;;;;;;;;;19.88;41.34;101340.28;5018138;28;1038;-51
2020/12/23 03:36:39;;;;;;;;;;;;;;;19.89;41.42;101349.47;5017523;28;1385;-52
2020/12/23 03:39:07;;;;;;;;;;;;;;;19.89;41.23;101352.28;5018161;28;1946;-52
2020/12/23 03:41:32;;;;;;;;;;;;;;;19.88;41.22;101354.28;5017405;28;904;-51
2020/12/23 03:43:58;;;;;;;;;;;;;;;19.88;41.34;101337.47;5017615;28;897;-52
2020/12/23 03:46:23;;;;;;;;;;;;;;;19.88;41.28;101331.88;5017201;28;1290;-51
2020/12/23 03:48:49;;;;;;;;;;;;;;;19.87;41.30;101319.03;5017605;28;901;-51
2020/12/23 03:51:16;;;;;;;;;;;;;;;19.87;41.16;101310.63;5017328;28;929;-51
2020/12/23 03:53:41;;;;;;;;;;;;;;;19.87;41.34;101305.03;5017408;28;1004;-51
2020/12/23 03:56:06;;;;;;;;;;;;;;;19.87;41.38;101307.84;5016937;28;1271;-52
2020/12/23 03:58:31;;;;;;;;;;;;;;;19.89;41.28;101299.03;5016967;28;1895;-51
2020/12/23 04:00:57;;;;;;;;;;;;;;;19.89;41.44;101301.84;5017066;28;960;-51
2020/12/23 04:03:22;;;;;;;;;;;;;;;19.87;41.32;101302.22;5018038;28;886;-52
2020/12/23 04:05:48;;;;;;;;;;;;;;;19.88;41.36;101306.66;5016974;28;1298;-51
2020/12/23 04:08:13;;;;;;;;;;;;;;;19.87;41.27;101295.84;5017010;28;1027;-55
2020/12/23 04:10:39;;;;;;;;;;;;;;;19.87;41.30;101298.63;5016571;28;893;-52
2020/12/23 04:13:04;;;;;;;;;;;;;;;19.87;41.30;101293.81;5017037;28;889;-51
2020/12/23 04:15:29;;;;;;;;;;;;;;;19.87;41.43;101296.63;5016708;28;979;-52
2020/12/23 04:17:55;;;;;;;;;;;;;;;19.87;41.31;101305.03;5017105;28;1887;-52
2020/12/23 04:20:21;;;;;;;;;;;;;;;19.87;41.31;101299.44;5017021;28;896;-52
2020/12/23 04:22:46;;;;;;;;;;;;;;;19.88;41.24;101305.81;5016877;28;919;-51
2020/12/23 04:25:12;;;;;;;;;;;;;;;19.87;41.44;101309.84;5016462;28;1034;-52
2020/12/23 04:27:37;;;;;;;;;;;;;;;19.86;41.37;101306.25;5017200;28;1346;-52
2020/12/23 04:30:05;;;;;;;;;;;;;;;19.87;41.40;101307.03;5016882;28;809;-52
2020/12/23 04:32:31;;;;;;;;;;;;;;;19.86;41.24;101306.25;5016646;28;821;-51
2020/12/23 04:35:01;;;;;;;;;;;;;;;19.87;41.46;101312.66;5016693;28;813;-52
2020/12/23 04:37:26;;;;;;;;;;;;;;;19.86;41.51;101308.22;5016880;28;1325;-51
2020/12/23 04:39:51;;;;;;;;;;;;;;;19.86;41.30;101308.22;5016298;28;1886;-52
2020/12/23 04:42:17;;;;;;;;;;;;;;;19.86;41.24;101311.84;5016576;28;874;-51
2020/12/23 04:44:42;;;;;;;;;;;;;;;19.87;41.28;101307.03;5016102;28;996;-51
2020/12/23 04:47:13;;;;;;;;;;;;;;;19.85;41.31;101290.63;5016394;28;1266;-52
2020/12/23 04:49:38;;;;;;;;;;;;;;;19.86;41.23;101292.25;5016817;28;825;-52
2020/12/23 04:52:07;;;;;;;;;;;;;;;19.87;41.31;101290.22;5016335;28;835;-52
2020/12/23 04:54:34;;;;;;;;;;;;;;;19.86;41.40;101277.41;5016620;28;860;-52
2020/12/23 04:56:59;;;;;;;;;;;;;;;19.86;41.43;101277.41;5016243;28;1407;-51
2020/12/23 04:59:25;;;;;;;;;;;;;;;19.86;41.31;101285.81;5016684;28;1883;-52
2020/12/23 05:01:50;;;;;;;;;;;;;;;19.85;41.29;101273.81;5016135;28;1052;-54
2020/12/23 05:04:16;;;;;;;;;;;;;;;19.85;41.40;101273.81;5015953;28;893;-52
2020/12/23 05:06:41;;;;;;;;;;;;;;;19.85;41.36;101282.22;5015671;28;1271;-55
2020/12/23 05:09:06;;;;;;;;;;;;;;;19.85;41.43;101282.22;5016546;28;904;-52
2020/12/23 05:11:35;;;;;;;;;;;;;;;19.85;41.18;101275.81;5016272;28;865;-51
2020/12/23 05:14:06;;;;;;;;;;;;;;;19.85;41.43;101279.41;5016215;28;999;-51
2020/12/23 05:16:32;;;;;;;;;;;;;;;19.85;41.21;101287.81;5016038;28;1372;-51
2020/12/23 05:18:59;;;;;;;;;;;;;;;19.85;41.34;101285.03;5016295;28;1954;-51
2020/12/23 05:21:25;;;;;;;;;;;;;;;19.85;41.30;101292.63;5016182;28;894;-53
2020/12/23 05:23:52;;;;;;;;;;;;;;;19.84;41.24;101289.00;5015080;28;842;-53
2020/12/23 05:26:19;;;;;;;;;;;;;;;19.85;41.47;101285.03;5015453;28;1278;-51
2020/12/23 05:28:45;;;;;;;;;;;;;;;19.85;41.43;101292.63;5015740;28;933;-52
2020/12/23 05:31:15;;;;;;;;;;;;;;;19.84;41.47;101282.63;5015599;28;1129;-53
2020/12/23 05:33:44;;;;;;;;;;;;;;;19.85;41.61;101278.63;5015755;28;873;-51
2020/12/23 05:36:11;;;;;;;;;;;;;;;19.85;41.43;101284.22;5015289;28;1255;-52
2020/12/23 05:38:37;;;;;;;;;;;;;;;19.85;41.44;101289.84;5015490;28;1898;-52
2020/12/23 05:41:08;;;;;;;;;;;;;;;19.84;41.39;101296.63;5015464;28;885;-52
2020/12/23 05:43:34;;;;;;;;;;;;;;;19.84;41.44;101286.22;5015300;28;1000;-52
2020/12/23 05:46:04;;;;;;;;;;;;;;;19.84;41.44;101291.81;5015391;28;1263;-51
2020/12/23 05:48:34;;;;;;;;;;;;;;;19.84;41.46;101291.81;5016167;28;978;-51
2020/12/23 05:51:00;;;;;;;;;;;;;;;19.84;41.32;101285.41;5015817;28;886;-51
2020/12/23 05:53:28;;;;;;;;;;;;;;;19.84;41.47;101291.81;5015574;28;892;-52
2020/12/23 05:55:55;;;;;;;;;;;;;;;19.84;41.22;101291.00;5015332;28;1263;-52
2020/12/23 05:58:28;;;;;;;;;;;;;;;19.83;41.29;101293.03;5015195;28;1910;-51
2020/12/23 06:00:55;;;;;;;;;;;;;;;19.83;41.31;101290.22;5015009;28;992;-52
2020/12/23 06:03:42;;;;;;;;;;;;;;;19.84;41.32;101285.41;5015651;28;891;-52
2020/12/23 06:06:08;;;;;;;;;;;;;;;19.84;41.35;101293.81;5014931;28;1420;-52
2020/12/23 06:08:38;;;;;;;;;;;;;;;19.84;41.38;101288.22;5015484;28;861;-51
2020/12/23 06:11:32;;;;;;;;;;;;;;;19.83;41.38;101286.59;5015036;28;1043;-51
2020/12/23 06:14:10;;;;;;;;;;;;;;;19.83;41.38;101276.22;5015607;28;1882;-53
2020/12/23 06:16:57;;;;;;;;;;;;;;;19.83;41.35;101279.03;5014709;28;1267;-51
2020/12/23 06:19:25;;;;;;;;;;;;;;;19.82;41.25;101280.19;5004212;28;1959;-55
2020/12/23 06:21:52;;;;;;;;;;;;;;;19.82;41.43;101276.63;5015063;28;821;-54
2020/12/23 06:24:18;;;;;;;;;;;;;;;19.83;41.19;101275.41;5015278;28;885;-51
2020/12/23 06:26:46;;;;;;;;;;;;;;;19.83;41.49;101270.63;5014914;28;1258;-52
2020/12/23 06:29:17;;;;;;;;;;;;;;;19.83;41.34;101264.19;5014913;28;968;-51
2020/12/23 06:31:46;;;;;;;;;;;;;;;19.83;41.35;101267.00;5015077;28;900;-52
2020/12/23 06:34:14;;;;;;;;;;;;;;;19.82;41.37;101260.59;5015775;28;897;-52
2020/12/23 06:36:39;;;;;;;;;;;;;;;19.83;41.44;101267.00;5018673;28;1357;-52
2020/12/23 06:39:20;;;;;;;;;;;;;;;19.81;41.35;101269.38;5018865;28;1952;-52
2020/12/23 06:41:46;;;;;;;;;;;;;;;19.82;41.31;101265.41;5018709;28;885;-52
2020/12/23 06:44:11;;;;;;;;;;;;;;;19.81;41.31;101259.00;5019179;28;944;-51
2020/12/23 06:46:59;;;;;;;;;;;;;;;19.81;41.24;101253.41;5018808;28;1394;-52
2020/12/23 06:49:40;;;;;;;;;;;;;;;19.81;41.54;101252.59;5018685;28;1020;-51
2020/12/23 06:52:20;;;;;;;;;;;;;;;19.81;41.31;101246.97;5018697;28;1036;-51
2020/12/23 06:54:47;;;;;;;;;;;;;;;19.81;41.27;101242.19;5018965;28;809;-53
2020/12/23 06:57:38;;;;;;;;;;;;;;;19.81;41.42;101242.19;5018618;28;1261;-52
2020/12/23 07:00:03;;;;;;;;;;;;;;;19.81;41.33;101245.00;5018184;28;1903;-51
2020/12/23 07:02:40;;;;;;;;;;;;;;;19.80;41.36;101237.78;5018662;28;869;-54
2020/12/23 07:05:06;;;;;;;;;;;;;;;19.81;41.48;101227.38;5018462;28;897;-51
2020/12/23 07:07:39;;;;;;;;;;;;;;;19.81;41.29;101227.38;5018785;28;1287;-51
2020/12/23 07:10:11;;;;;;;;;;;;;;;19.80;41.30;101225.78;5018494;28;876;-51
2020/12/23 07:12:47;;;;;;;;;;;;;;;19.80;41.39;101220.97;5018310;28;825;-51
2020/12/23 07:15:13;;;;;;;;;;;;;;;19.80;41.26;101229.38;5017988;28;1066;-51
2020/12/23 07:17:40;;;;;;;;;;;;;;;19.80;41.36;101231.38;5017815;28;1255;-51
2020/12/23 07:20:07;;;;;;;;;;;;;;;19.80;41.31;101223.78;5019007;28;1963;-52
2020/12/23 07:22:34;;;;;;;;;;;;;;;19.80;41.27;101215.38;5017773;28;833;-51
2020/12/23 07:25:00;;;;;;;;;;;;;;;19.79;41.30;101222.16;5017848;28;1019;-52
2020/12/23 07:27:27;;;;;;;;;;;;;;;19.79;41.45;101230.56;5018373;28;1349;-51
2020/12/23 07:30:08;;;;;;;;;;;;;;;19.79;41.29;101227.75;5017949;28;915;-52
2020/12/23 07:32:34;;;;;;;;;;;;;;;19.79;41.28;101224.97;5018358;28;1043;-52
2020/12/23 07:35:00;;;;;;;;;;;;;;;19.80;41.26;101217.38;5017698;28;1159;-52
2020/12/23 07:37:39;;;;;;;;;;;;;;;19.79;41.52;101218.56;5017528;28;1269;-51
2020/12/23 07:40:16;;;;;;;;;;;;;;;19.80;41.39;101220.19;5017961;28;1898;-52
2020/12/23 07:42:48;;;;;;;;;;;;;;;19.79;41.43;101215.75;5018301;28;845;-53
2020/12/23 07:45:14;;;;;;;;;;;;;;;19.79;41.42;101224.97;5017168;28;922;-52
2020/12/23 07:47:40;;;;;;;;;;;;;;;19.79;41.35;101216.56;5017584;28;1286;-51
2020/12/23 07:50:05;;;;;;;;;;;;;;;19.80;41.25;101214.56;5017684;28;1032;-51
2020/12/23 07:52:32;;;;;;;;;;;;;;;19.78;41.41;101214.16;5017707;28;877;-52
2020/12/23 07:55:14;;;;;;;;;;;;;;;19.78;41.40;101217.78;5017261;28;992;-52
2020/12/23 07:57:39;;;;;;;;;;;;;;;19.78;41.41;101214.16;5017366;28;1349;-53
2020/12/23 08:00:07;;;;;;;;;;;;;;;19.78;41.22;101222.56;5017448;28;1894;-53
2020/12/23 08:02:33;;;;;;;;;;;;;;;19.78;41.31;101214.97;5017408;28;939;-52
2020/12/23 08:04:59;;;;;;;;;;;;;;;19.78;41.34;101219.75;5017156;28;908;-52
2020/12/23 08:07:24;;;;;;;;;;;;;;;19.78;41.46;101214.16;5016974;28;1279;-51
2020/12/23 08:09:51;;;;;;;;;;;;;;;19.78;41.33;101212.16;5017451;28;881;-51
2020/12/23 08:12:20;;;;;;;;;;;;;;;19.78;41.42;101216.94;5017165;28;859;-52
2020/12/23 08:14:46;;;;;;;;;;;;;;;19.78;41.29;101214.97;5016948;28;755;-51
2020/12/23 08:17:22;;;;;;;;;;;;;;;19.79;41.26;101210.16;5017096;28;1361;-51
2020/12/23 08:20:14;;;;;;;;;;;;;;;19.78;41.26;101211.34;5016672;28;1890;-53
2020/12/23 08:22:42;;;;;;;;;;;;;;;19.77;41.34;101193.75;5016202;28;1864;-51
2020/12/23 08:25:16;;;;;;;;;;;;;;;19.78;41.19;101186.13;5016640;28;801;-52
2020/12/23 08:27:46;;;;;;;;;;;;;;;19.77;41.23;101184.56;5016670;28;1326;-52
2020/12/23 08:30:17;;;;;;;;;;;;;;;19.77;41.37;101178.94;5017114;28;948;-52
2020/12/23 08:32:46;;;;;;;;;;;;;;;19.77;41.38;101181.75;5016924;28;798;-51
2020/12/23 08:35:12;;;;;;;;;;;;;;;19.76;41.45;101174.53;5016457;28;829;-52
2020/12/23 08:37:38;;;;;;;;;;;;;;;19.76;41.38;101175.34;5016552;28;1258;-51
2020/12/23 08:40:06;;;;;;;;;;;;;;;19.77;41.28;101173.34;5016529;28;1957;-51
2020/12/23 08:42:32;;;;;;;;;;;;;;;19.76;41.27;101175.34;5016341;28;960;-53
2020/12/23 08:44:58;;;;;;;;;;;;;;;19.77;41.37;101164.94;5016112;28;1020;-52
2020/12/23 08:47:31;;;;;;;;;;;;;;;19.77;41.33;101167.75;5016402;28;1365;-53
2020/12/23 08:49:57;;;;;;;;;;;;;;;19.77;41.37;101159.34;5016459;28;843;-54
2020/12/23 08:52:24;;;;;;;;;;;;;;;19.77;41.43;101157.31;5016123;28;832;-55
2020/12/23 08:54:50;;;;;;;;;;;;;;;19.77;41.21;101164.94;5016179;28;929;-56
2020/12/23 08:57:22;;;;;;;;;;;;;;;19.77;41.49;101168.53;5015290;28;1339;-56
2020/12/23 08:59:47;;;;;;;;;;;;;;;19.78;41.72;101158.94;5015677;28;1983;-56
2020/12/23 09:02:14;;;;;;;;;;;;;;;19.79;41.98;101154.13;5016220;28;991;-53
2020/12/23 09:04:40;;;;;;;;;;;;;;;19.79;41.92;101152.13;5016015;28;880;-54
2020/12/23 09:07:06;;;;;;;;;;;;;;;19.79;42.05;101142.91;5016234;28;1341;-54
2020/12/23 09:09:31;;;;;;;;;;;;;;;19.79;41.83;101143.72;5016048;28;914;-53
2020/12/23 09:12:01;;;;;;;;;;;;;;;19.79;42.06;101145.72;5016322;28;854;-53
2020/12/23 09:14:40;;;;;;;;;;;;;;;19.79;41.97;101143.72;5015549;28;813;-56
2020/12/23 09:17:07;;;;;;;;;;;;;;;19.80;41.75;101150.13;5016194;28;1258;-54
2020/12/23 09:20:00;;;;;;;;;;;;;;;19.79;41.92;101143.72;5015796;28;1898;-55
2020/12/23 09:22:32;;;;;;;;;;;;;;;19.79;41.74;101143.72;5015806;28;884;-56
2020/12/23 09:25:19;;;;;;;;;;;;;;;19.79;41.82;101135.31;5015900;28;877;-56
2020/12/23 09:27:55;;;;;;;;;;;;;;;19.79;41.73;101138.09;5015812;28;1409;-55
2020/12/23 09:30:35;;;;;;;;;;;;;;;19.79;41.81;101140.91;5015912;28;1059;-54
2020/12/23 09:33:01;;;;;;;;;;;;;;;19.79;41.66;101132.50;5015552;28;940;-53
2020/12/23 09:35:28;;;;;;;;;;;;;;;19.79;41.65;101121.31;5015566;28;853;-53
2020/12/23 09:38:24;;;;;;;;;;;;;;;19.80;41.77;101119.31;5016207;28;1898;-53
2020/12/23 09:40:51;;;;;;;;;;;;;;;19.79;41.82;101126.91;5015837;28;884;-56
2020/12/23 09:43:21;;;;;;;;;;;;;;;19.79;41.71;101121.31;5015292;28;921;-55
2020/12/23 09:45:48;;;;;;;;;;;;;;;19.79;41.75;101110.09;5014578;28;1691;-56
2020/12/23 09:48:14;;;;;;;;;;;;;;;19.80;41.65;101102.50;5014656;28;1710;-55
2020/12/23 09:50:40;;;;;;;;;;;;;;;19.80;41.62;101099.72;5023093;28;1619;-55
2020/12/23 09:53:06;;;;;;;;;;;;;;;19.80;41.65;101094.09;5015386;28;944;-55
2020/12/23 09:55:31;;;;;;;;;;;;;;;19.80;41.70;101091.31;5014990;28;1884;-53
2020/12/23 09:57:57;;;;;;;;;;;;;;;19.80;41.56;101086.50;5015126;28;1898;-55
2020/12/23 10:00:22;;;;;;;;;;;;;;;19.79;41.78;101082.06;5015296;28;951;-53
2020/12/23 10:02:47;;;;;;;;;;;;;;;19.80;41.72;101082.91;5015097;28;849;-53
2020/12/23 10:05:13;;;;;;;;;;;;;;;19.80;41.74;101071.69;5014980;28;1891;-55
2020/12/23 10:07:38;;;;;;;;;;;;;;;19.80;41.78;101066.88;5015094;28;2166;-56
2020/12/23 10:10:05;;;;;;;;;;;;;;;19.80;41.63;101068.91;5015154;28;917;-53
2020/12/23 10:12:31;;;;;;;;;;;;;;;19.80;41.67;101068.91;5015557;28;841;-53
2020/12/23 10:14:56;;;;;;;;;;;;;;;19.80;41.88;101066.88;5014984;28;1657;-53
2020/12/23 10:17:21;;;;;;;;;;;;;;;19.80;41.85;101055.69;5015009;28;1624;-53
2020/12/23 10:19:47;;;;;;;;;;;;;;;19.81;41.91;101056.47;5014936;28;1944;-54
2020/12/23 10:22:12;;;;;;;;;;;;;;;19.81;41.95;101050.88;5015116;28;885;-53
2020/12/23 10:24:37;;;;;;;;;;;;;;;19.81;41.71;101037.69;5015070;28;1664;-53
2020/12/23 10:27:03;;;;;;;;;;;;;;;19.80;41.65;101026.88;5015390;28;1274;-55
2020/12/23 10:29:29;;;;;;;;;;;;;;;19.81;41.72;101023.66;5015299;28;1913;-54
2020/12/23 10:31:54;;;;;;;;;;;;;;;19.81;41.74;101023.66;5015107;28;1522;-53
2020/12/23 10:34:20;;;;;;;;;;;;;;;19.81;42.00;101017.25;5014865;28;1763;-54
2020/12/23 10:36:46;;;;;;;;;;;;;;;19.80;41.31;101016.47;5014799;28;1357;-56
2020/12/23 10:39:11;;;;;;;;;;;;;;;19.73;40.70;101011.63;5015207;28;1902;-55
2020/12/23 10:41:37;;;;;;;;;;;;;;;19.63;39.60;101001.25;5014769;28;1724;-54
2020/12/23 10:44:02;;;;;;;;;;;;;;;19.60;39.81;100995.66;5014504;28;1720;-55
2020/12/23 10:46:27;;;;;;;;;;;;;;;19.62;39.51;100985.66;5013039;28;1842;-57
2020/12/23 10:48:53;;;;;;;;;;;;;;;19.62;39.60;100988.47;5014142;28;1412;-57
2020/12/23 10:51:18;;;;;;;;;;;;;;;19.62;39.48;100982.84;5015157;28;973;-57
2020/12/23 10:53:43;;;;;;;;;;;;;;;19.61;39.12;100978.44;5015126;28;992;-55
2020/12/23 10:56:09;;;;;;;;;;;;;;;19.62;39.61;100976.44;5014745;28;1275;-56
2020/12/23 10:58:35;;;;;;;;;;;;;;;19.58;39.15;100968.03;5014777;28;1898;-55
2020/12/23 11:01:04;;;;;;;;;;;;;;;19.57;39.08;100963.66;5014844;28;1624;-54
2020/12/23 11:03:31;;;;;;;;;;;;;;;19.58;39.31;100964.44;5014582;28;976;-56
2020/12/23 11:05:56;;;;;;;;;;;;;;;19.56;39.68;100955.66;5014516;28;1275;-54
2020/12/23 11:08:21;;;;;;;;;;;;;;;19.54;40.33;100948.44;5014869;28;992;-53
2020/12/23 11:10:47;;;;;;;;;;;;;;;19.53;40.44;100941.25;5015152;28;851;-53
2020/12/23 11:13:12;;;;;;;;;;;;;;;19.52;40.38;100939.66;5014913;28;2147;-53
2020/12/23 11:15:37;;;;;;;;;;;;;;;19.51;40.52;100938.03;5014217;28;1927;-56
2020/12/23 11:18:02;;;;;;;;;;;;;;;19.51;40.46;100928.84;5014387;28;1890;-53
2020/12/23 11:20:28;;;;;;;;;;;;;;;19.51;40.48;100932.44;5014773;28;806;-53
2020/12/23 11:22:53;;;;;;;;;;;;;;;19.49;40.59;100929.25;5017760;28;2134;-54
2020/12/23 11:25:18;;;;;;;;;;;;;;;19.48;40.56;100924.06;5017837;28;1047;-53
2020/12/23 11:27:44;;;;;;;;;;;;;;;19.47;40.69;100916.88;5011996;28;3942;-54
2020/12/23 11:30:09;;;;;;;;;;;;;;;19.47;40.60;100912.06;5016577;28;2088;-54
2020/12/23 11:32:34;;;;;;;;;;;;;;;19.49;40.50;100903.25;5017787;28;1649;-55
2020/12/23 11:34:59;;;;;;;;;;;;;;;19.50;40.41;100902.03;5017449;28;2019;-55
2020/12/23 11:37:25;;;;;;;;;;;;;;;19.50;40.34;100891.66;5017932;28;1255;-56
2020/12/23 11:39:50;;;;;;;;;;;;;;;19.50;40.68;100888.03;5017311;28;1890;-54
2020/12/23 11:42:16;;;;;;;;;;;;;;;19.52;40.63;100885.66;5018021;28;889;-54
2020/12/23 11:44:41;;;;;;;;;;;;;;;19.53;40.53;100881.66;5017289;28;848;-57
2020/12/23 11:47:08;;;;;;;;;;;;;;;19.54;40.47;100883.25;5017893;28;1292;-57
2020/12/23 11:49:33;;;;;;;;;;;;;;;19.55;40.58;100879.22;5017841;28;988;-56
2020/12/23 11:51:58;;;;;;;;;;;;;;;19.56;40.87;100874.44;5017289;28;931;-56
2020/12/23 11:54:24;;;;;;;;;;;;;;;19.55;40.83;100873.63;5017260;28;1641;-58
2020/12/23 11:56:50;;;;;;;;;;;;;;;19.57;40.96;100870.44;5017835;28;1361;-53
2020/12/23 11:59:15;;;;;;;;;;;;;;;19.57;41.11;100864.81;5017456;28;1903;-55
2020/12/23 12:01:41;;;;;;;;;;;;;;;19.56;41.00;100855.63;5017109;28;1598;-55
2020/12/23 12:04:06;;;;;;;;;;;;;;;19.57;41.17;100851.66;5017614;28;939;-54
2020/12/23 12:06:32;;;;;;;;;;;;;;;19.58;41.23;100860.84;5016924;28;1306;-55
2020/12/23 12:08:57;;;;;;;;;;;;;;;19.58;41.17;100846.84;5017533;28;976;-56
2020/12/23 12:11:22;;;;;;;;;;;;;;;19.57;41.48;100846.03;5017552;28;786;-55
2020/12/23 12:13:47;;;;;;;;;;;;;;;19.58;41.77;100839.22;5017533;28;1040;-56
2020/12/23 12:16:13;;;;;;;;;;;;;;;19.59;41.90;100842.81;5016636;28;1736;-56
2020/12/23 12:18:40;;;;;;;;;;;;;;;19.58;42.16;100833.63;5016819;28;1898;-54
2020/12/23 12:21:05;;;;;;;;;;;;;;;19.58;42.23;100828.03;5016920;28;1636;-54
2020/12/23 12:23:30;;;;;;;;;;;;;;;19.60;42.51;100830.41;5016703;28;1648;-54
2020/12/23 12:25:56;;;;;;;;;;;;;;;19.60;42.59;100822.81;5016514;28;1376;-54
2020/12/23 12:28:21;;;;;;;;;;;;;;;19.60;42.71;100819.22;5017383;28;913;-54
2020/12/23 12:30:46;;;;;;;;;;;;;;;19.60;42.73;100822.03;5016590;28;867;-54
2020/12/23 12:33:15;;;;;;;;;;;;;;;19.60;43.11;100825.59;5017082;28;996;-54
2020/12/23 12:35:42;;;;;;;;;;;;;;;19.60;43.20;100825.59;5016687;28;1291;-55
2020/12/23 12:38:07;;;;;;;;;;;;;;;19.60;43.39;100825.59;5016766;28;1992;-57
2020/12/23 12:40:32;;;;;;;;;;;;;;;19.61;43.38;100818.03;5016468;28;958;-57
2020/12/23 12:43:02;;;;;;;;;;;;;;;19.61;43.30;100802.00;5016965;28;989;-57
2020/12/23 12:45:27;;;;;;;;;;;;;;;19.61;43.86;100799.22;5016166;28;845;-56
2020/12/23 12:47:52;;;;;;;;;;;;;;;19.62;43.96;100794.41;5015884;28;1743;-57
2020/12/23 12:50:18;;;;;;;;;;;;;;;19.62;43.86;100791.59;5024397;28;1790;-57
2020/12/23 12:52:43;;;;;;;;;;;;;;;19.63;44.38;100784.81;5035929;28;877;-57
2020/12/23 12:55:08;;;;;;;;;;;;;;;19.63;44.04;100776.41;5023291;28;1944;-56